sensor_id;sensor_type;location;lat;lon;timestamp;P1;durP1;ratioP1;P2;durP2;ratioP2
9761;SDS011;4920;49.594;11.022;2023-02-02T00:00:23;11.67;;;3.23;;
9761;SDS011;4920;49.594;11.022;2023-02-02T00:02:52;8.77;;;2.50;;
9761;SDS011;4920;49.594;11.022;2023-02-02T00:05:21;4.20;;;2.00;;
9761;SDS011;4920;49.594;11.022;2023-02-02T00:07:50;5.17;;;1.80;;
9761;SDS011;4920;49.594;11.022;2023-02-02T00:15:11;3.43;;;1.73;;
9761;SDS011;4920;49.594;11.022;2023-02-02T00:17:40;4.03;;;1.87;;
9761;SDS011;4920;49.594;11.022;2023-02-02T00:20:09;4.13;;;1.93;;
9761;SDS011;4920;49.594;11.022;2023-02-02T00:22:38;6.73;;;2.00;;
9761;SDS011;4920;49.594;11.022;2023-02-02T00:25:07;7.67;;;1.90;;
9761;SDS011;4920;49.594;11.022;2023-02-02T00:27:36;3.80;;;1.63;;
9761;SDS011;4920;49.594;11.022;2023-02-02T00:30:05;4.67;;;1.80;;
9761;SDS011;4920;49.594;11.022;2023-02-02T00:32:36;6.00;;;1.87;;
9761;SDS011;4920;49.594;11.022;2023-02-02T00:35:06;2.27;;;1.50;;
9761;SDS011;4920;49.594;11.022;2023-02-02T00:37:36;3.30;;;1.50;;
9761;SDS011;4920;49.594;11.022;2023-02-02T00:40:05;3.27;;;1.30;;
9761;SDS011;4920;49.594;11.022;2023-02-02T00:42:34;3.07;;;1.00;;
9761;SDS011;4920;49.594;11.022;2023-02-02T00:45:04;1.83;;;1.00;;
9761;SDS011;4920;49.594;11.022;2023-02-02T00:47:46;1.27;;;1.00;;
9761;SDS011;4920;49.594;11.022;2023-02-02T00:50:17;1.93;;;0.80;;
9761;SDS011;4920;49.594;11.022;2023-02-02T00:52:47;1.07;;;0.90;;
9761;SDS011;4920;49.594;11.022;2023-02-02T00:55:16;0.93;;;0.70;;
9761;SDS011;4920;49.594;11.022;2023-02-02T00:57:45;1.27;;;0.70;;
9761;SDS011;4920;49.594;11.022;2023-02-02T01:00:15;0.60;;;0.60;;
9761;SDS011;4920;49.594;11.022;2023-02-02T01:02:47;1.57;;;0.70;;
9761;SDS011;4920;49.594;11.022;2023-02-02T01:05:19;0.60;;;0.60;;
9761;SDS011;4920;49.594;11.022;2023-02-02T01:07:49;1.30;;;0.70;;
9761;SDS011;4920;49.594;11.022;2023-02-02T01:10:18;0.60;;;0.50;;
9761;SDS011;4920;49.594;11.022;2023-02-02T01:12:47;0.70;;;0.60;;
9761;SDS011;4920;49.594;11.022;2023-02-02T01:15:18;0.77;;;0.77;;
9761;SDS011;4920;49.594;11.022;2023-02-02T01:17:49;1.37;;;0.67;;
9761;SDS011;4920;49.594;11.022;2023-02-02T01:20:19;0.83;;;0.60;;
9761;SDS011;4920;49.594;11.022;2023-02-02T01:22:50;0.80;;;0.70;;
9761;SDS011;4920;49.594;11.022;2023-02-02T01:25:19;0.93;;;0.60;;
9761;SDS011;4920;49.594;11.022;2023-02-02T01:27:48;0.97;;;0.40;;
9761;SDS011;4920;49.594;11.022;2023-02-02T01:30:17;0.83;;;0.50;;
9761;SDS011;4920;49.594;11.022;2023-02-02T01:32:47;0.63;;;0.63;;
9761;SDS011;4920;49.594;11.022;2023-02-02T01:35:17;0.50;;;0.50;;
9761;SDS011;4920;49.594;11.022;2023-02-02T01:37:46;0.77;;;0.50;;
9761;SDS011;4920;49.594;11.022;2023-02-02T01:40:15;0.50;;;0.50;;
9761;SDS011;4920;49.594;11.022;2023-02-02T01:42:46;0.63;;;0.60;;
9761;SDS011;4920;49.594;11.022;2023-02-02T01:45:23;0.60;;;0.60;;
9761;SDS011;4920;49.594;11.022;2023-02-02T01:47:53;0.70;;;0.70;;
9761;SDS011;4920;49.594;11.022;2023-02-02T01:50:30;0.50;;;0.50;;
9761;SDS011;4920;49.594;11.022;2023-02-02T01:53:01;0.47;;;0.47;;
9761;SDS011;4920;49.594;11.022;2023-02-02T01:55:33;0.87;;;0.50;;
9761;SDS011;4920;49.594;11.022;2023-02-02T01:58:06;0.50;;;0.50;;
9761;SDS011;4920;49.594;11.022;2023-02-02T02:00:38;0.53;;;0.50;;
9761;SDS011;4920;49.594;11.022;2023-02-02T02:03:14;0.60;;;0.60;;
9761;SDS011;4920;49.594;11.022;2023-02-02T02:05:49;1.20;;;0.60;;
9761;SDS011;4920;49.594;11.022;2023-02-02T02:08:26;0.90;;;0.70;;
9761;SDS011;4920;49.594;11.022;2023-02-02T02:10:56;0.60;;;0.53;;
9761;SDS011;4920;49.594;11.022;2023-02-02T02:13:26;0.87;;;0.60;;
9761;SDS011;4920;49.594;11.022;2023-02-02T02:16:12;0.67;;;0.60;;
9761;SDS011;4920;49.594;11.022;2023-02-02T02:18:51;0.53;;;0.50;;
9761;SDS011;4920;49.594;11.022;2023-02-02T02:21:36;1.03;;;0.50;;
9761;SDS011;4920;49.594;11.022;2023-02-02T02:28:08;0.67;;;0.60;;
9761;SDS011;4920;49.594;11.022;2023-02-02T02:34:19;1.10;;;0.73;;
9761;SDS011;4920;49.594;11.022;2023-02-02T02:36:55;1.07;;;0.87;;
9761;SDS011;4920;49.594;11.022;2023-02-02T02:39:33;1.20;;;0.90;;
9761;SDS011;4920;49.594;11.022;2023-02-02T02:42:06;1.03;;;0.80;;
9761;SDS011;4920;49.594;11.022;2023-02-02T02:44:38;1.53;;;0.90;;
9761;SDS011;4920;49.594;11.022;2023-02-02T02:47:08;0.93;;;0.70;;
9761;SDS011;4920;49.594;11.022;2023-02-02T02:49:43;2.03;;;0.80;;
9761;SDS011;4920;49.594;11.022;2023-02-02T02:52:13;1.87;;;0.80;;
9761;SDS011;4920;49.594;11.022;2023-02-02T02:54:46;1.07;;;0.70;;
9761;SDS011;4920;49.594;11.022;2023-02-02T02:57:26;0.70;;;0.70;;
9761;SDS011;4920;49.594;11.022;2023-02-02T03:00:07;1.03;;;0.80;;
9761;SDS011;4920;49.594;11.022;2023-02-02T03:02:46;0.80;;;0.73;;
9761;SDS011;4920;49.594;11.022;2023-02-02T03:05:23;1.03;;;0.70;;
9761;SDS011;4920;49.594;11.022;2023-02-02T03:08:01;0.87;;;0.70;;
9761;SDS011;4920;49.594;11.022;2023-02-02T03:10:34;0.60;;;0.60;;
9761;SDS011;4920;49.594;11.022;2023-02-02T03:13:05;1.20;;;0.80;;
9761;SDS011;4920;49.594;11.022;2023-02-02T03:15:36;1.00;;;0.80;;
9761;SDS011;4920;49.594;11.022;2023-02-02T03:18:08;0.80;;;0.80;;
9761;SDS011;4920;49.594;11.022;2023-02-02T03:20:39;1.07;;;0.80;;
9761;SDS011;4920;49.594;11.022;2023-02-02T03:23:07;2.00;;;1.00;;
9761;SDS011;4920;49.594;11.022;2023-02-02T03:25:36;1.70;;;1.00;;
9761;SDS011;4920;49.594;11.022;2023-02-02T03:28:05;2.33;;;0.90;;
9761;SDS011;4920;49.594;11.022;2023-02-02T03:30:34;4.00;;;0.87;;
9761;SDS011;4920;49.594;11.022;2023-02-02T03:33:05;1.20;;;0.80;;
9761;SDS011;4920;49.594;11.022;2023-02-02T03:35:34;1.30;;;0.90;;
9761;SDS011;4920;49.594;11.022;2023-02-02T03:38:04;2.30;;;1.10;;
9761;SDS011;4920;49.594;11.022;2023-02-02T03:40:34;2.13;;;0.83;;
9761;SDS011;4920;49.594;11.022;2023-02-02T03:43:03;1.10;;;0.90;;
9761;SDS011;4920;49.594;11.022;2023-02-02T03:45:32;1.10;;;0.90;;
9761;SDS011;4920;49.594;11.022;2023-02-02T03:48:03;1.93;;;0.90;;
9761;SDS011;4920;49.594;11.022;2023-02-02T03:50:32;1.27;;;1.03;;
9761;SDS011;4920;49.594;11.022;2023-02-02T03:53:01;1.40;;;1.00;;
9761;SDS011;4920;49.594;11.022;2023-02-02T03:55:32;2.23;;;1.23;;
9761;SDS011;4920;49.594;11.022;2023-02-02T03:58:01;1.93;;;1.50;;
9761;SDS011;4920;49.594;11.022;2023-02-02T04:00:30;4.60;;;2.20;;
9761;SDS011;4920;49.594;11.022;2023-02-02T04:02:59;2.77;;;2.20;;
9761;SDS011;4920;49.594;11.022;2023-02-02T04:05:30;2.70;;;1.50;;
9761;SDS011;4920;49.594;11.022;2023-02-02T04:08:00;1.80;;;1.30;;
9761;SDS011;4920;49.594;11.022;2023-02-02T04:10:28;1.40;;;1.07;;
9761;SDS011;4920;49.594;11.022;2023-02-02T04:12:59;1.20;;;1.00;;
9761;SDS011;4920;49.594;11.022;2023-02-02T04:15:27;1.77;;;1.00;;
9761;SDS011;4920;49.594;11.022;2023-02-02T04:17:57;1.50;;;1.20;;
9761;SDS011;4920;49.594;11.022;2023-02-02T04:20:26;2.10;;;1.43;;
9761;SDS011;4920;49.594;11.022;2023-02-02T04:22:55;1.33;;;1.20;;
9761;SDS011;4920;49.594;11.022;2023-02-02T04:25:24;2.40;;;1.00;;
9761;SDS011;4920;49.594;11.022;2023-02-02T04:27:53;1.57;;;1.10;;
9761;SDS011;4920;49.594;11.022;2023-02-02T04:30:23;0.97;;;0.90;;
9761;SDS011;4920;49.594;11.022;2023-02-02T04:32:53;1.60;;;0.90;;
9761;SDS011;4920;49.594;11.022;2023-02-02T04:35:22;1.90;;;0.90;;
9761;SDS011;4920;49.594;11.022;2023-02-02T04:37:51;0.80;;;0.80;;
9761;SDS011;4920;49.594;11.022;2023-02-02T04:40:22;1.53;;;0.90;;
9761;SDS011;4920;49.594;11.022;2023-02-02T04:42:51;1.10;;;1.00;;
9761;SDS011;4920;49.594;11.022;2023-02-02T04:45:19;1.30;;;0.90;;
9761;SDS011;4920;49.594;11.022;2023-02-02T04:47:50;1.60;;;1.00;;
9761;SDS011;4920;49.594;11.022;2023-02-02T04:50:19;1.67;;;0.93;;
9761;SDS011;4920;49.594;11.022;2023-02-02T04:52:48;1.90;;;1.17;;
9761;SDS011;4920;49.594;11.022;2023-02-02T04:55:16;2.23;;;1.80;;
9761;SDS011;4920;49.594;11.022;2023-02-02T04:57:45;1.40;;;1.30;;
9761;SDS011;4920;49.594;11.022;2023-02-02T05:00:14;1.77;;;1.30;;
9761;SDS011;4920;49.594;11.022;2023-02-02T05:02:43;3.00;;;1.30;;
9761;SDS011;4920;49.594;11.022;2023-02-02T05:08:58;2.50;;;1.10;;
9761;SDS011;4920;49.594;11.022;2023-02-02T05:11:26;2.57;;;1.40;;
9761;SDS011;4920;49.594;11.022;2023-02-02T05:13:56;2.23;;;1.40;;
9761;SDS011;4920;49.594;11.022;2023-02-02T05:16:25;5.20;;;1.30;;
9761;SDS011;4920;49.594;11.022;2023-02-02T05:18:55;6.03;;;1.57;;
9761;SDS011;4920;49.594;11.022;2023-02-02T05:21:26;2.60;;;1.47;;
9761;SDS011;4920;49.594;11.022;2023-02-02T05:23:57;2.93;;;1.30;;
9761;SDS011;4920;49.594;11.022;2023-02-02T05:26:27;1.60;;;1.17;;
9761;SDS011;4920;49.594;11.022;2023-02-02T05:28:56;1.83;;;1.03;;
9761;SDS011;4920;49.594;11.022;2023-02-02T05:31:25;2.00;;;1.10;;
9761;SDS011;4920;49.594;11.022;2023-02-02T05:33:53;3.33;;;1.50;;
9761;SDS011;4920;49.594;11.022;2023-02-02T05:36:22;2.00;;;1.00;;
9761;SDS011;4920;49.594;11.022;2023-02-02T05:38:51;4.60;;;1.10;;
9761;SDS011;4920;49.594;11.022;2023-02-02T05:41:21;1.80;;;1.03;;
9761;SDS011;4920;49.594;11.022;2023-02-02T05:43:50;2.57;;;1.10;;
9761;SDS011;4920;49.594;11.022;2023-02-02T05:46:18;1.40;;;1.00;;
9761;SDS011;4920;49.594;11.022;2023-02-02T05:48:47;2.63;;;1.17;;
9761;SDS011;4920;49.594;11.022;2023-02-02T05:51:17;4.90;;;1.10;;
9761;SDS011;4920;49.594;11.022;2023-02-02T05:53:48;1.77;;;1.20;;
9761;SDS011;4920;49.594;11.022;2023-02-02T05:56:17;2.77;;;1.20;;
9761;SDS011;4920;49.594;11.022;2023-02-02T05:58:48;2.17;;;0.93;;
9761;SDS011;4920;49.594;11.022;2023-02-02T06:01:16;3.53;;;1.00;;
9761;SDS011;4920;49.594;11.022;2023-02-02T06:03:46;4.90;;;1.20;;
9761;SDS011;4920;49.594;11.022;2023-02-02T06:06:18;2.30;;;1.30;;
9761;SDS011;4920;49.594;11.022;2023-02-02T06:08:47;2.57;;;1.03;;
9761;SDS011;4920;49.594;11.022;2023-02-02T06:11:16;3.20;;;1.30;;
9761;SDS011;4920;49.594;11.022;2023-02-02T06:13:46;1.93;;;1.30;;
9761;SDS011;4920;49.594;11.022;2023-02-02T06:16:17;3.27;;;2.13;;
9761;SDS011;4920;49.594;11.022;2023-02-02T06:18:46;3.80;;;2.10;;
9761;SDS011;4920;49.594;11.022;2023-02-02T06:21:16;3.33;;;1.37;;
9761;SDS011;4920;49.594;11.022;2023-02-02T06:23:45;1.47;;;1.30;;
9761;SDS011;4920;49.594;11.022;2023-02-02T06:26:14;5.53;;;1.50;;
9761;SDS011;4920;49.594;11.022;2023-02-02T06:28:48;2.17;;;1.20;;
9761;SDS011;4920;49.594;11.022;2023-02-02T06:31:19;4.17;;;1.30;;
9761;SDS011;4920;49.594;11.022;2023-02-02T06:33:51;2.03;;;1.13;;
9761;SDS011;4920;49.594;11.022;2023-02-02T06:36:29;2.23;;;1.20;;
9761;SDS011;4920;49.594;11.022;2023-02-02T06:39:02;2.33;;;1.30;;
9761;SDS011;4920;49.594;11.022;2023-02-02T06:41:31;3.60;;;1.67;;
9761;SDS011;4920;49.594;11.022;2023-02-02T06:44:01;4.13;;;1.60;;
9761;SDS011;4920;49.594;11.022;2023-02-02T06:46:30;4.73;;;1.70;;
9761;SDS011;4920;49.594;11.022;2023-02-02T06:48:59;5.00;;;1.70;;
9761;SDS011;4920;49.594;11.022;2023-02-02T06:51:29;2.70;;;1.83;;
9761;SDS011;4920;49.594;11.022;2023-02-02T06:53:57;3.20;;;2.30;;
9761;SDS011;4920;49.594;11.022;2023-02-02T06:56:26;7.90;;;3.93;;
9761;SDS011;4920;49.594;11.022;2023-02-02T06:58:55;6.87;;;2.27;;
9761;SDS011;4920;49.594;11.022;2023-02-02T07:01:25;6.13;;;2.93;;
9761;SDS011;4920;49.594;11.022;2023-02-02T07:03:54;3.87;;;2.00;;
9761;SDS011;4920;49.594;11.022;2023-02-02T07:06:24;4.43;;;2.10;;
9761;SDS011;4920;49.594;11.022;2023-02-02T07:08:56;6.23;;;1.80;;
9761;SDS011;4920;49.594;11.022;2023-02-02T07:11:29;4.03;;;1.97;;
9761;SDS011;4920;49.594;11.022;2023-02-02T07:14:04;6.43;;;2.00;;
9761;SDS011;4920;49.594;11.022;2023-02-02T07:16:35;4.90;;;2.17;;
9761;SDS011;4920;49.594;11.022;2023-02-02T07:19:05;3.93;;;1.80;;
9761;SDS011;4920;49.594;11.022;2023-02-02T07:21:33;3.97;;;2.30;;
9761;SDS011;4920;49.594;11.022;2023-02-02T07:24:03;6.50;;;2.20;;
9761;SDS011;4920;49.594;11.022;2023-02-02T07:26:32;4.17;;;2.10;;
9761;SDS011;4920;49.594;11.022;2023-02-02T07:29:02;8.50;;;2.10;;
9761;SDS011;4920;49.594;11.022;2023-02-02T07:31:31;4.47;;;2.10;;
9761;SDS011;4920;49.594;11.022;2023-02-02T07:34:04;2.67;;;1.90;;
9761;SDS011;4920;49.594;11.022;2023-02-02T07:36:34;3.33;;;2.00;;
9761;SDS011;4920;49.594;11.022;2023-02-02T07:39:05;3.37;;;2.17;;
9761;SDS011;4920;49.594;11.022;2023-02-02T07:44:36;6.50;;;2.50;;
9761;SDS011;4920;49.594;11.022;2023-02-02T07:47:05;6.23;;;2.30;;
9761;SDS011;4920;49.594;11.022;2023-02-02T07:49:36;3.73;;;2.20;;
9761;SDS011;4920;49.594;11.022;2023-02-02T07:52:05;3.50;;;2.20;;
9761;SDS011;4920;49.594;11.022;2023-02-02T07:54:36;5.87;;;2.30;;
9761;SDS011;4920;49.594;11.022;2023-02-02T07:57:04;6.10;;;2.60;;
9761;SDS011;4920;49.594;11.022;2023-02-02T07:59:34;7.83;;;2.60;;
9761;SDS011;4920;49.594;11.022;2023-02-02T08:02:02;8.33;;;2.90;;
9761;SDS011;4920;49.594;11.022;2023-02-02T08:04:32;6.40;;;3.20;;
9761;SDS011;4920;49.594;11.022;2023-02-02T08:07:02;10.87;;;2.97;;
9761;SDS011;4920;49.594;11.022;2023-02-02T08:09:32;6.40;;;2.57;;
9761;SDS011;4920;49.594;11.022;2023-02-02T08:12:03;4.60;;;2.53;;
9761;SDS011;4920;49.594;11.022;2023-02-02T08:14:32;4.83;;;2.70;;
9761;SDS011;4920;49.594;11.022;2023-02-02T08:17:01;7.77;;;2.70;;
9761;SDS011;4920;49.594;11.022;2023-02-02T08:19:32;3.67;;;2.30;;
9761;SDS011;4920;49.594;11.022;2023-02-02T08:28:07;4.20;;;2.30;;
9761;SDS011;4920;49.594;11.022;2023-02-02T08:30:37;4.07;;;2.10;;
9761;SDS011;4920;49.594;11.022;2023-02-02T08:33:06;3.47;;;2.20;;
9761;SDS011;4920;49.594;11.022;2023-02-02T08:35:38;4.17;;;1.90;;
9761;SDS011;4920;49.594;11.022;2023-02-02T08:38:10;3.20;;;1.90;;
9761;SDS011;4920;49.594;11.022;2023-02-02T08:40:39;4.60;;;1.90;;
9761;SDS011;4920;49.594;11.022;2023-02-02T08:43:08;3.00;;;1.93;;
9761;SDS011;4920;49.594;11.022;2023-02-02T08:45:42;3.33;;;1.93;;
9761;SDS011;4920;49.594;11.022;2023-02-02T08:48:29;2.97;;;1.87;;
9761;SDS011;4920;49.594;11.022;2023-02-02T08:50:58;3.40;;;1.90;;
9761;SDS011;4920;49.594;11.022;2023-02-02T08:53:29;3.53;;;2.10;;
9761;SDS011;4920;49.594;11.022;2023-02-02T08:55:58;5.27;;;2.03;;
9761;SDS011;4920;49.594;11.022;2023-02-02T08:58:28;2.87;;;1.53;;
9761;SDS011;4920;49.594;11.022;2023-02-02T09:01:02;3.20;;;1.80;;
9761;SDS011;4920;49.594;11.022;2023-02-02T09:03:33;6.03;;;2.27;;
9761;SDS011;4920;49.594;11.022;2023-02-02T09:06:04;3.93;;;1.97;;
9761;SDS011;4920;49.594;11.022;2023-02-02T09:08:36;3.13;;;2.00;;
9761;SDS011;4920;49.594;11.022;2023-02-02T09:11:06;6.30;;;2.50;;
9761;SDS011;4920;49.594;11.022;2023-02-02T09:13:36;3.13;;;1.87;;
9761;SDS011;4920;49.594;11.022;2023-02-02T09:16:06;4.70;;;2.10;;
9761;SDS011;4920;49.594;11.022;2023-02-02T09:18:37;4.40;;;2.10;;
9761;SDS011;4920;49.594;11.022;2023-02-02T09:21:07;4.37;;;1.90;;
9761;SDS011;4920;49.594;11.022;2023-02-02T09:23:39;7.07;;;2.13;;
9761;SDS011;4920;49.594;11.022;2023-02-02T09:26:11;5.03;;;1.60;;
9761;SDS011;4920;49.594;11.022;2023-02-02T09:28:42;5.03;;;2.30;;
9761;SDS011;4920;49.594;11.022;2023-02-02T09:31:12;3.77;;;2.33;;
9761;SDS011;4920;49.594;11.022;2023-02-02T09:33:41;5.20;;;1.87;;
9761;SDS011;4920;49.594;11.022;2023-02-02T09:36:12;4.83;;;2.10;;
9761;SDS011;4920;49.594;11.022;2023-02-02T09:38:43;3.57;;;2.33;;
9761;SDS011;4920;49.594;11.022;2023-02-02T09:41:18;6.13;;;1.73;;
9761;SDS011;4920;49.594;11.022;2023-02-02T09:44:07;3.80;;;1.90;;
9761;SDS011;4920;49.594;11.022;2023-02-02T09:46:47;4.70;;;2.47;;
9761;SDS011;4920;49.594;11.022;2023-02-02T09:49:32;3.50;;;2.20;;
9761;SDS011;4920;49.594;11.022;2023-02-02T09:52:07;3.97;;;2.40;;
9761;SDS011;4920;49.594;11.022;2023-02-02T09:54:42;5.00;;;2.90;;
9761;SDS011;4920;49.594;11.022;2023-02-02T09:57:14;4.83;;;2.67;;
9761;SDS011;4920;49.594;11.022;2023-02-02T09:59:47;6.50;;;3.07;;
9761;SDS011;4920;49.594;11.022;2023-02-02T10:02:20;4.90;;;3.20;;
9761;SDS011;4920;49.594;11.022;2023-02-02T10:04:53;5.13;;;3.00;;
9761;SDS011;4920;49.594;11.022;2023-02-02T10:07:26;4.43;;;3.37;;
9761;SDS011;4920;49.594;11.022;2023-02-02T10:10:03;5.53;;;3.33;;
9761;SDS011;4920;49.594;11.022;2023-02-02T10:12:46;5.37;;;3.60;;
9761;SDS011;4920;49.594;11.022;2023-02-02T10:15:23;6.03;;;3.67;;
9761;SDS011;4920;49.594;11.022;2023-02-02T10:18:01;8.60;;;4.53;;
9761;SDS011;4920;49.594;11.022;2023-02-02T10:20:42;10.60;;;5.27;;
9761;SDS011;4920;49.594;11.022;2023-02-02T10:23:18;6.87;;;4.77;;
9761;SDS011;4920;49.594;11.022;2023-02-02T10:25:59;7.67;;;5.53;;
9761;SDS011;4920;49.594;11.022;2023-02-02T10:28:40;12.90;;;5.77;;
9761;SDS011;4920;49.594;11.022;2023-02-02T10:31:14;7.07;;;5.60;;
9761;SDS011;4920;49.594;11.022;2023-02-02T10:33:51;8.97;;;5.43;;
9761;SDS011;4920;49.594;11.022;2023-02-02T10:36:30;7.73;;;4.90;;
9761;SDS011;4920;49.594;11.022;2023-02-02T10:39:08;7.13;;;5.10;;
9761;SDS011;4920;49.594;11.022;2023-02-02T10:41:50;7.13;;;5.30;;
9761;SDS011;4920;49.594;11.022;2023-02-02T10:44:30;10.30;;;5.83;;
9761;SDS011;4920;49.594;11.022;2023-02-02T10:47:03;13.70;;;6.20;;
9761;SDS011;4920;49.594;11.022;2023-02-02T10:49:37;9.80;;;6.13;;
9761;SDS011;4920;49.594;11.022;2023-02-02T10:52:12;10.43;;;5.13;;
9761;SDS011;4920;49.594;11.022;2023-02-02T10:54:49;6.53;;;4.57;;
9761;SDS011;4920;49.594;11.022;2023-02-02T10:57:31;7.27;;;5.20;;
9761;SDS011;4920;49.594;11.022;2023-02-02T11:00:14;9.70;;;5.17;;
9761;SDS011;4920;49.594;11.022;2023-02-02T11:02:49;12.73;;;5.53;;
9761;SDS011;4920;49.594;11.022;2023-02-02T11:05:20;7.03;;;5.10;;
9761;SDS011;4920;49.594;11.022;2023-02-02T11:08:15;7.63;;;5.53;;
9761;SDS011;4920;49.594;11.022;2023-02-02T11:10:46;8.17;;;5.50;;
9761;SDS011;4920;49.594;11.022;2023-02-02T11:13:23;6.13;;;4.53;;
9761;SDS011;4920;49.594;11.022;2023-02-02T11:16:17;6.27;;;4.70;;
9761;SDS011;4920;49.594;11.022;2023-02-02T11:18:58;8.13;;;5.20;;
9761;SDS011;4920;49.594;11.022;2023-02-02T11:21:28;9.90;;;5.63;;
9761;SDS011;4920;49.594;11.022;2023-02-02T11:24:01;8.70;;;6.43;;
9761;SDS011;4920;49.594;11.022;2023-02-02T11:29:23;13.00;;;5.73;;
9761;SDS011;4920;49.594;11.022;2023-02-02T11:31:54;9.07;;;6.33;;
9761;SDS011;4920;49.594;11.022;2023-02-02T11:34:24;9.97;;;6.50;;
9761;SDS011;4920;49.594;11.022;2023-02-02T11:36:58;8.13;;;6.20;;
9761;SDS011;4920;49.594;11.022;2023-02-02T11:42:44;9.10;;;5.57;;
9761;SDS011;4920;49.594;11.022;2023-02-02T11:45:16;8.30;;;5.40;;
9761;SDS011;4920;49.594;11.022;2023-02-02T11:47:47;11.63;;;5.43;;
9761;SDS011;4920;49.594;11.022;2023-02-02T11:50:19;11.33;;;7.10;;
9761;SDS011;4920;49.594;11.022;2023-02-02T11:52:53;15.93;;;6.70;;
9761;SDS011;4920;49.594;11.022;2023-02-02T11:55:23;11.77;;;5.90;;
9761;SDS011;4920;49.594;11.022;2023-02-02T12:00:59;15.47;;;6.60;;
9761;SDS011;4920;49.594;11.022;2023-02-02T12:03:30;11.37;;;5.77;;
9761;SDS011;4920;49.594;11.022;2023-02-02T12:06:04;11.40;;;5.73;;
9761;SDS011;4920;49.594;11.022;2023-02-02T12:08:45;12.57;;;5.90;;
9761;SDS011;4920;49.594;11.022;2023-02-02T12:11:19;9.97;;;4.90;;
9761;SDS011;4920;49.594;11.022;2023-02-02T12:14:10;12.67;;;5.20;;
9761;SDS011;4920;49.594;11.022;2023-02-02T12:16:53;12.47;;;5.20;;
9761;SDS011;4920;49.594;11.022;2023-02-02T12:19:32;9.57;;;4.67;;
9761;SDS011;4920;49.594;11.022;2023-02-02T12:22:19;9.83;;;4.70;;
9761;SDS011;4920;49.594;11.022;2023-02-02T12:25:00;7.77;;;4.40;;
9761;SDS011;4920;49.594;11.022;2023-02-02T12:27:42;10.10;;;4.50;;
9761;SDS011;4920;49.594;11.022;2023-02-02T12:30:21;8.77;;;4.30;;
9761;SDS011;4920;49.594;11.022;2023-02-02T12:36:00;8.83;;;4.20;;
9761;SDS011;4920;49.594;11.022;2023-02-02T12:38:51;9.67;;;4.27;;
9761;SDS011;4920;49.594;11.022;2023-02-02T12:41:38;8.20;;;4.17;;
9761;SDS011;4920;49.594;11.022;2023-02-02T12:44:25;8.13;;;4.20;;
9761;SDS011;4920;49.594;11.022;2023-02-02T12:47:11;9.57;;;4.30;;
9761;SDS011;4920;49.594;11.022;2023-02-02T12:49:56;8.13;;;4.47;;
9761;SDS011;4920;49.594;11.022;2023-02-02T12:52:44;7.57;;;4.63;;
9761;SDS011;4920;49.594;11.022;2023-02-02T12:55:34;6.93;;;4.10;;
9761;SDS011;4920;49.594;11.022;2023-02-02T12:58:13;7.37;;;3.67;;
9761;SDS011;4920;49.594;11.022;2023-02-02T13:04:31;11.00;;;4.13;;
9761;SDS011;4920;49.594;11.022;2023-02-02T13:10:05;6.50;;;3.87;;
9761;SDS011;4920;49.594;11.022;2023-02-02T13:12:47;13.73;;;4.63;;
9761;SDS011;4920;49.594;11.022;2023-02-02T13:15:27;7.07;;;4.07;;
9761;SDS011;4920;49.594;11.022;2023-02-02T13:18:00;9.27;;;4.43;;
9761;SDS011;4920;49.594;11.022;2023-02-02T13:20:37;11.07;;;4.60;;
9761;SDS011;4920;49.594;11.022;2023-02-02T13:23:14;9.57;;;5.00;;
9761;SDS011;4920;49.594;11.022;2023-02-02T13:25:53;7.27;;;4.40;;
9761;SDS011;4920;49.594;11.022;2023-02-02T13:28:37;6.47;;;4.60;;
9761;SDS011;4920;49.594;11.022;2023-02-02T13:31:20;8.90;;;4.50;;
9761;SDS011;4920;49.594;11.022;2023-02-02T13:33:58;8.77;;;4.73;;
9761;SDS011;4920;49.594;11.022;2023-02-02T13:36:32;8.60;;;4.00;;
9761;SDS011;4920;49.594;11.022;2023-02-02T13:39:11;9.43;;;4.50;;
9761;SDS011;4920;49.594;11.022;2023-02-02T13:41:46;7.30;;;3.60;;
9761;SDS011;4920;49.594;11.022;2023-02-02T13:44:23;8.37;;;4.27;;
9761;SDS011;4920;49.594;11.022;2023-02-02T13:47:22;7.73;;;3.80;;
9761;SDS011;4920;49.594;11.022;2023-02-02T13:49:59;5.73;;;3.60;;
9761;SDS011;4920;49.594;11.022;2023-02-02T13:55:45;5.30;;;4.30;;
9761;SDS011;4920;49.594;11.022;2023-02-02T14:01:30;7.13;;;3.60;;
9761;SDS011;4920;49.594;11.022;2023-02-02T14:03:59;4.77;;;3.47;;
9761;SDS011;4920;49.594;11.022;2023-02-02T14:06:34;3.83;;;3.40;;
9761;SDS011;4920;49.594;11.022;2023-02-02T14:09:23;4.57;;;2.80;;
9761;SDS011;4920;49.594;11.022;2023-02-02T14:11:57;3.10;;;2.60;;
9761;SDS011;4920;49.594;11.022;2023-02-02T14:14:28;5.10;;;2.93;;
9761;SDS011;4920;49.594;11.022;2023-02-02T14:17:02;2.80;;;2.60;;
9761;SDS011;4920;49.594;11.022;2023-02-02T14:19:49;5.07;;;2.77;;
9761;SDS011;4920;49.594;11.022;2023-02-02T14:22:38;4.47;;;2.90;;
9761;SDS011;4920;49.594;11.022;2023-02-02T14:28:41;6.93;;;3.03;;
9761;SDS011;4920;49.594;11.022;2023-02-02T14:34:26;5.43;;;3.30;;
9761;SDS011;4920;49.594;11.022;2023-02-02T14:40:23;3.70;;;2.90;;
9761;SDS011;4920;49.594;11.022;2023-02-02T14:43:03;2.87;;;2.57;;
9761;SDS011;4920;49.594;11.022;2023-02-02T14:51:56;4.53;;;3.10;;
9761;SDS011;4920;49.594;11.022;2023-02-02T14:54:38;6.70;;;3.60;;
9761;SDS011;4920;49.594;11.022;2023-02-02T14:57:19;4.10;;;3.00;;
9761;SDS011;4920;49.594;11.022;2023-02-02T15:06:23;4.50;;;2.93;;
9761;SDS011;4920;49.594;11.022;2023-02-02T15:12:19;4.37;;;2.90;;
9761;SDS011;4920;49.594;11.022;2023-02-02T15:15:06;3.83;;;2.93;;
9761;SDS011;4920;49.594;11.022;2023-02-02T15:17:45;4.83;;;3.20;;
9761;SDS011;4920;49.594;11.022;2023-02-02T15:20:23;4.67;;;3.27;;
9761;SDS011;4920;49.594;11.022;2023-02-02T15:22:59;3.80;;;3.10;;
9761;SDS011;4920;49.594;11.022;2023-02-02T15:25:31;5.23;;;3.03;;
9761;SDS011;4920;49.594;11.022;2023-02-02T15:28:07;6.60;;;3.90;;
9761;SDS011;4920;49.594;11.022;2023-02-02T15:30:47;4.37;;;3.17;;
9761;SDS011;4920;49.594;11.022;2023-02-02T15:33:25;5.37;;;3.47;;
9761;SDS011;4920;49.594;11.022;2023-02-02T15:35:58;4.50;;;3.37;;
9761;SDS011;4920;49.594;11.022;2023-02-02T15:38:37;4.87;;;3.40;;
9761;SDS011;4920;49.594;11.022;2023-02-02T15:44:16;3.73;;;3.30;;
9761;SDS011;4920;49.594;11.022;2023-02-02T15:46:46;8.83;;;3.87;;
9761;SDS011;4920;49.594;11.022;2023-02-02T15:49:21;4.70;;;3.70;;
9761;SDS011;4920;49.594;11.022;2023-02-02T15:52:03;6.97;;;4.23;;
9761;SDS011;4920;49.594;11.022;2023-02-02T15:54:48;6.27;;;3.80;;
9761;SDS011;4920;49.594;11.022;2023-02-02T15:57:25;5.63;;;3.87;;
9761;SDS011;4920;49.594;11.022;2023-02-02T15:59:56;10.13;;;4.90;;
9761;SDS011;4920;49.594;11.022;2023-02-02T16:02:28;6.77;;;4.30;;
9761;SDS011;4920;49.594;11.022;2023-02-02T16:05:01;7.07;;;4.73;;
9761;SDS011;4920;49.594;11.022;2023-02-02T16:07:50;7.03;;;4.23;;
9761;SDS011;4920;49.594;11.022;2023-02-02T16:10:32;8.10;;;4.70;;
9761;SDS011;4920;49.594;11.022;2023-02-02T16:13:02;6.50;;;4.80;;
9761;SDS011;4920;49.594;11.022;2023-02-02T16:15:31;6.57;;;4.50;;
9761;SDS011;4920;49.594;11.022;2023-02-02T16:18:00;6.20;;;4.63;;
9761;SDS011;4920;49.594;11.022;2023-02-02T16:20:31;8.57;;;5.10;;
9761;SDS011;4920;49.594;11.022;2023-02-02T16:23:03;9.70;;;5.57;;
9761;SDS011;4920;49.594;11.022;2023-02-02T16:25:43;11.73;;;6.80;;
9761;SDS011;4920;49.594;11.022;2023-02-02T16:28:16;15.43;;;7.13;;
9761;SDS011;4920;49.594;11.022;2023-02-02T16:30:47;12.00;;;6.30;;
9761;SDS011;4920;49.594;11.022;2023-02-02T16:33:25;6.23;;;4.80;;
9761;SDS011;4920;49.594;11.022;2023-02-02T16:42:43;10.17;;;6.70;;
9761;SDS011;4920;49.594;11.022;2023-02-02T16:45:31;10.63;;;6.67;;
9761;SDS011;4920;49.594;11.022;2023-02-02T16:48:17;14.90;;;7.60;;
9761;SDS011;4920;49.594;11.022;2023-02-02T16:53:55;9.40;;;7.00;;
9761;SDS011;4920;49.594;11.022;2023-02-02T16:56:28;13.77;;;7.80;;
9761;SDS011;4920;49.594;11.022;2023-02-02T16:59:02;16.30;;;8.67;;
9761;SDS011;4920;49.594;11.022;2023-02-02T17:01:34;13.00;;;8.90;;
9761;SDS011;4920;49.594;11.022;2023-02-02T17:04:06;10.13;;;7.33;;
9761;SDS011;4920;49.594;11.022;2023-02-02T17:06:48;21.33;;;11.27;;